Time;durP1;ratioP1;P1;durP2;ratioP2;P2;SDS_P1;SDS_P2;PMS_P1;PMS_P2;Temp;Humidity;BMP_temperature;BMP_pressure;BME280_temperature;BME280_humidity;BME280_pressure;Samples;Min_cycle;Max_cycle;Signal;HPM_P1;HPM_P2
2021/08/08 00:01:58;;;;;;;;;;;11.90;99.90;;;;;;5092865;28;19908;-68
2021/08/08 00:04:24;;;;;;;;;;;11.90;99.90;;;;;;5092608;28;20003;-65
2021/08/08 00:06:51;;;;;;;;;;;12.00;99.90;;;;;;5086525;28;19909;-66
2021/08/08 00:09:18;;;;;;;;;;;12.00;99.90;;;;;;5072625;28;19978;-65
2021/08/08 00:11:45;;;;;;;;;;;12.10;99.90;;;;;;5072351;28;19963;-68
2021/08/08 00:14:12;;;;;;;;;;;12.10;99.90;;;;;;5071649;28;19916;-69
2021/08/08 00:16:38;;;;;;;;;;;12.10;99.90;;;;;;5072237;28;19908;-68
2021/08/08 00:19:05;;;;;;;;;;;12.20;99.90;;;;;;5072113;28;19916;-68
2021/08/08 00:21:32;;;;;;;;;;;12.20;99.90;;;;;;5072039;28;19969;-68
2021/08/08 00:23:58;;;;;;;;;;;12.30;99.90;;;;;;5071421;28;20259;-67
2021/08/08 00:26:25;;;;;;;;;;;12.30;99.90;;;;;;5054414;28;19997;-67
2021/08/08 00:28:52;;;;;;;;;;;12.30;99.90;;;;;;5071712;28;19916;-67
2021/08/08 00:31:23;;;;;;;;;;;12.40;99.90;;;;;;5072383;28;19913;-66
2021/08/08 00:33:52;;;;;;;;;;;12.50;99.90;;;;;;5071948;28;19955;-69
2021/08/08 00:36:20;;;;;;;;;;;12.50;99.90;;;;;;5072083;28;19912;-70
2021/08/08 00:38:47;;;;;;;;;;;12.50;99.90;;;;;;5072191;28;19912;-68
2021/08/08 00:41:13;;;;;;;;;;;12.60;99.90;;;;;;5072194;28;19913;-68
2021/08/08 00:43:40;;;;;;;;;;;12.60;99.90;;;;;;5071377;28;19916;-68
2021/08/08 00:46:07;;;;;;;;;;;12.60;99.90;;;;;;5071856;28;19925;-68
2021/08/08 00:48:34;;;;;;;;;;;12.70;99.90;;;;;;5071739;28;19923;-67
2021/08/08 00:51:00;;;;;;;;;;;12.70;99.90;;;;;;5071819;28;19912;-68
2021/08/08 00:53:27;;;;;;;;;;;12.60;99.90;;;;;;5072043;28;20275;-69
2021/08/08 00:55:54;;;;;;;;;;;12.60;99.90;;;;;;5071759;28;19951;-69
2021/08/08 00:58:21;;;;;;;;;;;12.60;99.90;;;;;;5071214;28;19995;-69
2021/08/08 01:00:48;;;;;;;;;;;12.70;99.90;;;;;;5071602;28;19920;-69
2021/08/08 01:03:15;;;;;;;;;;;12.70;99.90;;;;;;5071869;28;19909;-69
2021/08/08 01:05:49;;;;;;;;;;;12.70;99.90;;;;;;5087162;28;20256;-69
2021/08/08 01:08:19;;;;;;;;;;;12.70;99.90;;;;;;5071693;28;19932;-68
2021/08/08 01:10:46;;;;;;;;;;;12.70;99.90;;;;;;5053841;28;19912;-67
2021/08/08 01:13:13;;;;;;;;;;;12.60;99.90;;;;;;5071185;28;19953;-67
2021/08/08 01:15:41;;;;;;;;;;;12.60;99.90;;;;;;5071370;28;19916;-67
2021/08/08 01:18:09;;;;;;;;;;;12.60;99.90;;;;;;5071730;28;20007;-67
2021/08/08 01:20:37;;;;;;;;;;;12.60;99.90;;;;;;5071768;28;19919;-67
2021/08/08 01:23:04;;;;;;;;;;;12.50;99.90;;;;;;5071645;28;19909;-66
2021/08/08 01:25:31;;;;;;;;;;;12.50;99.90;;;;;;5071679;28;19908;-67
2021/08/08 01:27:58;;;;;;;;;;;12.60;99.90;;;;;;5071072;28;19908;-66
2021/08/08 01:30:26;;;;;;;;;;;12.50;99.90;;;;;;5071196;28;19917;-66
2021/08/08 01:32:52;;;;;;;;;;;12.50;99.90;;;;;;5071705;28;20318;-67
2021/08/08 01:35:19;;;;;;;;;;;12.50;99.90;;;;;;5073463;28;19944;-67
2021/08/08 01:37:46;;;;;;;;;;;12.50;99.90;;;;;;5074845;28;20424;-67
2021/08/08 01:40:16;;;;;;;;;;;12.40;99.90;;;;;;5057260;28;20284;-67
2021/08/08 01:42:43;;;;;;;;;;;12.40;99.90;;;;;;5074465;28;19923;-67
2021/08/08 01:45:12;;;;;;;;;;;12.50;99.90;;;;;;5074526;28;19921;-67
2021/08/08 01:47:41;;;;;;;;;;;12.50;99.90;;;;;;5074811;28;20314;-67
2021/08/08 01:50:08;;;;;;;;;;;12.40;99.90;;;;;;5074783;28;20428;-66
2021/08/08 01:52:35;;;;;;;;;;;12.40;99.90;;;;;;5075133;28;19916;-67
2021/08/08 01:55:03;;;;;;;;;;;12.50;99.90;;;;;;5075340;28;19913;-67
2021/08/08 01:57:30;;;;;;;;;;;12.50;99.90;;;;;;5073924;28;19962;-66
2021/08/08 01:59:57;;;;;;;;;;;12.50;99.90;;;;;;5074515;28;19912;-66
2021/08/08 02:02:23;;;;;;;;;;;12.50;99.90;;;;;;5074616;28;20419;-66
2021/08/08 02:04:50;;;;;;;;;;;12.50;99.90;;;;;;5074685;28;19909;-67
2021/08/08 02:07:18;;;;;;;;;;;12.50;99.90;;;;;;5074555;28;20383;-68
2021/08/08 02:09:45;;;;;;;;;;;12.50;99.90;;;;;;5074110;28;19916;-67
2021/08/08 02:12:12;;;;;;;;;;;12.50;99.90;;;;;;5073787;28;19908;-68
2021/08/08 02:14:39;;;;;;;;;;;12.50;99.90;;;;;;5074630;28;19915;-68
2021/08/08 02:17:06;;;;;;;;;;;12.40;99.90;;;;;;5074624;28;19916;-69
2021/08/08 02:19:33;;;;;;;;;;;12.50;99.90;;;;;;5074080;28;19930;-69
2021/08/08 02:22:00;;;;;;;;;;;12.50;99.90;;;;;;5074263;28;20263;-68
2021/08/08 02:24:29;;;;;;;;;;;12.50;99.90;;;;;;5074169;28;20358;-68
2021/08/08 02:26:56;;;;;;;;;;;12.60;99.90;;;;;;5073975;28;19915;-68
2021/08/08 02:29:23;;;;;;;;;;;12.70;99.90;;;;;;5074020;28;19939;-68
2021/08/08 02:31:50;;;;;;;;;;;12.80;99.90;;;;;;5089410;28;20044;-69
2021/08/08 02:34:16;;;;;;;;;;;12.90;99.90;;;;;;5073988;28;20352;-68
2021/08/08 02:36:43;;;;;;;;;;;12.90;99.90;;;;;;5074725;28;19966;-69
2021/08/08 02:39:10;;;;;;;;;;;13.00;99.90;;;;;;5073938;28;19962;-68
2021/08/08 02:41:37;;;;;;;;;;;13.20;99.90;;;;;;5073250;28;19999;-70
2021/08/08 02:44:04;;;;;;;;;;;13.10;99.90;;;;;;5073508;28;20004;-70
2021/08/08 02:46:31;;;;;;;;;;;13.10;99.90;;;;;;5073005;28;19925;-69
2021/08/08 02:48:58;;;;;;;;;;;13.10;99.90;;;;;;5073855;28;19912;-69
2021/08/08 02:51:24;;;;;;;;;;;13.20;99.90;;;;;;5073835;28;19915;-68
2021/08/08 02:53:51;;;;;;;;;;;13.30;99.90;;;;;;5073345;28;19916;-69
2021/08/08 02:56:17;;;;;;;;;;;13.30;99.90;;;;;;5073046;28;20274;-69
2021/08/08 02:58:44;;;;;;;;;;;13.40;99.90;;;;;;5073490;28;19908;-70
2021/08/08 03:01:11;;;;;;;;;;;13.60;99.90;;;;;;5073552;28;19916;-69
2021/08/08 03:03:38;;;;;;;;;;;13.50;99.90;;;;;;5073694;28;19973;-69
2021/08/08 03:06:14;;;;;;;;;;;13.50;99.90;;;;;;5073280;28;19916;-70
2021/08/08 03:08:44;;;;;;;;;;;13.30;99.90;;;;;;5073198;28;19963;-69
2021/08/08 03:11:12;;;;;;;;;;;13.40;99.90;;;;;;5072636;28;19920;-69
2021/08/08 03:13:39;;;;;;;;;;;13.30;99.90;;;;;;5072954;28;19916;-69
2021/08/08 03:16:05;;;;;;;;;;;13.40;99.90;;;;;;5073076;28;19908;-69
2021/08/08 03:18:32;;;;;;;;;;;13.30;99.90;;;;;;5073031;28;20283;-68
2021/08/08 03:20:59;;;;;;;;;;;13.30;99.90;;;;;;5072981;28;20307;-69
2021/08/08 03:23:26;;;;;;;;;;;13.30;99.90;;;;;;5073124;28;19970;-69
2021/08/08 03:25:53;;;;;;;;;;;13.30;99.90;;;;;;5072423;28;19918;-69
2021/08/08 03:28:20;;;;;;;;;;;13.30;99.90;;;;;;5072868;28;20002;-68
2021/08/08 03:30:47;;;;;;;;;;;13.40;99.90;;;;;;5072848;28;19913;-69
2021/08/08 03:33:14;;;;;;;;;;;13.40;99.90;;;;;;5072911;28;19995;-68
2021/08/08 03:35:40;;;;;;;;;;;13.50;99.90;;;;;;5072710;28;19969;-68
2021/08/08 03:38:07;;;;;;;;;;;13.50;99.90;;;;;;5072682;28;20409;-69
2021/08/08 03:40:35;;;;;;;;;;;13.50;99.90;;;;;;5071947;28;19915;-68
2021/08/08 03:43:02;;;;;;;;;;;13.50;99.90;;;;;;5072484;28;19909;-69
2021/08/08 03:45:28;;;;;;;;;;;13.40;99.90;;;;;;5072645;28;19946;-67
2021/08/08 03:47:55;;;;;;;;;;;13.40;99.90;;;;;;5072570;28;19931;-69
2021/08/08 03:50:22;;;;;;;;;;;13.50;99.90;;;;;;5072680;28;19927;-69
2021/08/08 03:52:48;;;;;;;;;;;13.60;99.90;;;;;;5072533;28;20359;-70
2021/08/08 03:55:15;;;;;;;;;;;13.80;99.90;;;;;;5071978;28;19909;-69
2021/08/08 03:57:42;;;;;;;;;;;13.90;99.90;;;;;;5078025;28;19916;-70
2021/08/08 04:00:09;;;;;;;;;;;14.00;99.90;;;;;;5092715;28;19953;-70
2021/08/08 04:02:35;;;;;;;;;;;14.00;99.90;;;;;;5092606;28;19919;-70
2021/08/08 04:05:02;;;;;;;;;;;14.10;99.90;;;;;;5092810;28;20364;-69
2021/08/08 04:07:28;;;;;;;;;;;14.10;99.90;;;;;;5093080;28;19914;-70
2021/08/08 04:09:55;;;;;;;;;;;14.10;99.90;;;;;;5092505;28;19927;-69
2021/08/08 04:12:22;;;;;;;;;;;14.00;99.90;;;;;;5092289;28;19912;-70
2021/08/08 04:14:48;;;;;;;;;;;13.90;99.90;;;;;;5092559;28;19908;-69
2021/08/08 04:17:16;;;;;;;;;;;13.70;99.90;;;;;;5092730;28;20002;-69
2021/08/08 04:19:42;;;;;;;;;;;13.60;99.90;;;;;;5086095;28;19916;-68
2021/08/08 04:22:09;;;;;;;;;;;13.50;99.90;;;;;;5072250;28;19908;-68
2021/08/08 04:24:35;;;;;;;;;;;13.30;99.90;;;;;;5072176;28;20243;-68
2021/08/08 04:27:02;;;;;;;;;;;13.20;99.90;;;;;;5088266;28;20424;-69
2021/08/08 04:29:30;;;;;;;;;;;13.00;99.90;;;;;;5071922;28;19917;-69
2021/08/08 04:31:57;;;;;;;;;;;13.00;99.90;;;;;;5071678;28;19915;-69
2021/08/08 04:34:23;;;;;;;;;;;12.90;99.90;;;;;;5072239;28;19969;-68
2021/08/08 04:36:50;;;;;;;;;;;12.80;99.90;;;;;;5071975;28;20387;-68
2021/08/08 04:39:17;;;;;;;;;;;12.70;99.90;;;;;;5071965;28;19913;-69
2021/08/08 04:41:43;;;;;;;;;;;12.60;99.90;;;;;;5071935;28;19916;-68
2021/08/08 04:44:10;;;;;;;;;;;12.50;99.90;;;;;;5087337;28;19990;-68
2021/08/08 04:46:36;;;;;;;;;;;12.50;99.90;;;;;;5071881;28;20295;-69
2021/08/08 04:49:03;;;;;;;;;;;12.50;99.90;;;;;;5071676;28;20378;-68
2021/08/08 04:51:30;;;;;;;;;;;12.40;99.90;;;;;;5087477;28;20336;-68
2021/08/08 04:53:56;;;;;;;;;;;12.40;99.90;;;;;;5072096;28;19957;-68
2021/08/08 04:56:23;;;;;;;;;;;12.40;99.90;;;;;;5071825;28;19908;-67
2021/08/08 04:58:50;;;;;;;;;;;12.40;99.90;;;;;;5071692;28;20363;-67
2021/08/08 05:01:16;;;;;;;;;;;12.30;99.90;;;;;;5071882;28;19912;-67
2021/08/08 05:03:43;;;;;;;;;;;12.30;99.90;;;;;;5071105;28;19908;-67
2021/08/08 05:06:09;;;;;;;;;;;12.40;99.90;;;;;;5071978;28;19952;-67
2021/08/08 05:08:36;;;;;;;;;;;12.40;99.90;;;;;;5072029;28;19970;-67
2021/08/08 05:11:03;;;;;;;;;;;12.40;99.90;;;;;;5074912;28;19926;-68
2021/08/08 05:13:30;;;;;;;;;;;12.40;99.90;;;;;;5075057;28;19908;-68
2021/08/08 05:15:57;;;;;;;;;;;12.40;99.90;;;;;;5075721;28;19916;-67
2021/08/08 05:18:23;;;;;;;;;;;12.40;99.90;;;;;;5074587;28;19909;-69
2021/08/08 05:20:50;;;;;;;;;;;12.40;99.90;;;;;;5075433;28;19909;-67
2021/08/08 05:23:17;;;;;;;;;;;12.40;99.90;;;;;;5075492;28;19920;-67
2021/08/08 05:25:43;;;;;;;;;;;12.40;99.90;;;;;;5057403;28;19908;-67
2021/08/08 05:28:10;;;;;;;;;;;12.50;99.90;;;;;;5075373;28;20378;-67
2021/08/08 05:30:37;;;;;;;;;;;12.40;99.90;;;;;;5075295;28;20422;-67
2021/08/08 05:33:03;;;;;;;;;;;12.30;99.90;;;;;;5074574;28;19909;-67
2021/08/08 05:35:30;;;;;;;;;;;12.20;99.90;;;;;;5075047;28;19912;-68
2021/08/08 05:37:57;;;;;;;;;;;12.20;99.90;;;;;;5075209;28;19912;-67
2021/08/08 05:40:23;;;;;;;;;;;12.20;99.90;;;;;;5075112;28;20382;-68
2021/08/08 05:42:50;;;;;;;;;;;12.10;99.90;;;;;;5074949;28;19909;-67
2021/08/08 05:45:21;;;;;;;;;;;12.20;99.90;;;;;;5074842;28;19921;-68
2021/08/08 05:47:48;;;;;;;;;;;12.20;99.90;;;;;;5074316;28;19916;-68
2021/08/08 05:50:15;;;;;;;;;;;12.20;99.90;;;;;;5075072;28;20015;-67
2021/08/08 05:52:46;;;;;;;;;;;12.20;99.90;;;;;;5074991;28;19909;-67
2021/08/08 05:55:12;;;;;;;;;;;12.20;99.90;;;;;;5074804;28;19909;-67
2021/08/08 05:57:39;;;;;;;;;;;12.40;99.90;;;;;;5074537;28;19935;-67
2021/08/08 06:00:06;;;;;;;;;;;12.40;99.90;;;;;;5074701;28;19909;-66
2021/08/08 06:02:34;;;;;;;;;;;12.50;99.90;;;;;;5074052;28;19908;-67
2021/08/08 06:05:00;;;;;;;;;;;12.60;99.90;;;;;;5074687;28;19916;-67
2021/08/08 06:07:28;;;;;;;;;;;12.60;99.90;;;;;;5074560;28;20354;-66
2021/08/08 06:09:54;;;;;;;;;;;12.60;99.90;;;;;;5074409;28;19916;-67
2021/08/08 06:12:21;;;;;;;;;;;12.60;99.90;;;;;;5074334;28;19909;-67
2021/08/08 06:14:48;;;;;;;;;;;12.60;99.90;;;;;;5074687;28;19943;-67
2021/08/08 06:17:14;;;;;;;;;;;12.60;99.90;;;;;;5074028;28;20359;-67
2021/08/08 06:19:41;;;;;;;;;;;12.70;99.90;;;;;;5074239;28;19908;-67
2021/08/08 06:22:08;;;;;;;;;;;12.60;99.90;;;;;;5073153;28;19912;-67
2021/08/08 06:24:34;;;;;;;;;;;12.70;99.90;;;;;;5074245;28;20522;-67
2021/08/08 06:27:01;;;;;;;;;;;12.70;99.90;;;;;;5074141;28;19917;-67
2021/08/08 06:29:27;;;;;;;;;;;12.70;99.90;;;;;;5074103;28;19916;-68
2021/08/08 06:31:54;;;;;;;;;;;12.60;99.90;;;;;;5073645;28;19915;-66
2021/08/08 06:34:21;;;;;;;;;;;12.60;99.90;;;;;;5074083;28;19915;-66
2021/08/08 06:36:47;;;;;;;;;;;12.70;99.90;;;;;;5094075;28;19912;-68
2021/08/08 06:39:14;;;;;;;;;;;12.80;99.90;;;;;;5073444;28;20379;-66
2021/08/08 06:41:40;;;;;;;;;;;12.90;99.90;;;;;;5073773;28;19941;-66
2021/08/08 06:44:08;;;;;;;;;;;12.80;99.90;;;;;;5073849;28;19908;-66
2021/08/08 06:46:35;;;;;;;;;;;12.80;99.90;;;;;;5073752;28;19921;-68
2021/08/08 06:49:01;;;;;;;;;;;12.70;99.90;;;;;;5073657;28;19919;-66
2021/08/08 06:51:28;;;;;;;;;;;12.70;99.90;;;;;;5074104;28;20005;-67
2021/08/08 06:53:55;;;;;;;;;;;12.70;99.90;;;;;;5073847;28;19908;-66
2021/08/08 06:56:22;;;;;;;;;;;12.60;99.90;;;;;;5073921;28;19966;-67
2021/08/08 06:58:48;;;;;;;;;;;12.50;99.90;;;;;;5073562;28;20331;-68
2021/08/08 07:01:18;;;;;;;;;;;12.50;99.90;;;;;;5073458;28;19908;-67
2021/08/08 07:03:45;;;;;;;;;;;12.50;99.90;;;;;;5073202;28;19965;-67
2021/08/08 07:06:11;;;;;;;;;;;12.50;99.90;;;;;;5073498;28;19908;-67
2021/08/08 07:08:38;;;;;;;;;;;12.50;99.90;;;;;;5073426;28;19921;-67
2021/08/08 07:11:05;;;;;;;;;;;12.40;99.90;;;;;;5073652;28;20413;-68
2021/08/08 07:13:31;;;;;;;;;;;12.40;99.90;;;;;;5073233;28;19954;-67
2021/08/08 07:15:58;;;;;;;;;;;12.40;99.90;;;;;;5073254;28;19914;-67
2021/08/08 07:18:24;;;;;;;;;;;12.30;99.90;;;;;;5073332;28;20056;-67
2021/08/08 07:20:51;;;;;;;;;;;12.30;99.90;;;;;;5073340;28;19961;-67
2021/08/08 07:23:18;;;;;;;;;;;12.30;99.90;;;;;;5073271;28;20364;-67
2021/08/08 07:25:44;;;;;;;;;;;12.30;99.90;;;;;;5072857;28;19961;-67
2021/08/08 07:28:11;;;;;;;;;;;12.30;99.90;;;;;;5073064;28;20073;-67
2021/08/08 07:30:37;;;;;;;;;;;12.20;99.90;;;;;;5073007;28;19921;-68
2021/08/08 07:33:04;;;;;;;;;;;12.20;99.90;;;;;;5072888;28;19919;-68
2021/08/08 07:35:31;;;;;;;;;;;12.20;99.90;;;;;;5073003;28;19925;-68
2021/08/08 07:37:59;;;;;;;;;;;12.20;99.90;;;;;;5072852;28;19965;-68
2021/08/08 07:40:28;;;;;;;;;;;12.20;99.90;;;;;;5073113;28;19908;-68
2021/08/08 07:42:55;;;;;;;;;;;12.30;99.90;;;;;;5072608;28;19915;-67
2021/08/08 07:45:21;;;;;;;;;;;12.30;99.90;;;;;;5072559;28;20301;-67
2021/08/08 07:47:48;;;;;;;;;;;12.40;99.90;;;;;;5072516;28;19954;-67
2021/08/08 07:50:15;;;;;;;;;;;12.40;99.90;;;;;;5072702;28;19923;-68
2021/08/08 07:52:41;;;;;;;;;;;12.40;99.90;;;;;;5072926;28;20360;-68
2021/08/08 07:55:09;;;;;;;;;;;12.50;99.90;;;;;;5072918;28;19908;-68
2021/08/08 07:57:36;;;;;;;;;;;12.50;99.90;;;;;;5071174;28;19954;-69
2021/08/08 08:00:03;;;;;;;;;;;12.60;99.90;;;;;;5072640;28;19955;-69
2021/08/08 08:02:30;;;;;;;;;;;12.60;99.90;;;;;;5072919;28;20348;-67
2021/08/08 08:04:57;;;;;;;;;;;12.60;99.90;;;;;;5072613;28;19920;-67
2021/08/08 08:07:23;;;;;;;;;;;12.70;99.90;;;;;;5072458;28;19920;-67
2021/08/08 08:09:50;;;;;;;;;;;12.70;99.90;;;;;;5072161;28;19966;-66
2021/08/08 08:12:16;;;;;;;;;;;12.70;99.90;;;;;;5054313;28;20340;-69
2021/08/08 08:14:43;;;;;;;;;;;12.70;99.90;;;;;;5072622;28;19909;-68
2021/08/08 08:17:10;;;;;;;;;;;12.80;99.90;;;;;;5071305;28;19909;-68
2021/08/08 08:19:36;;;;;;;;;;;12.80;99.90;;;;;;5072142;28;19913;-68
2021/08/08 08:22:03;;;;;;;;;;;12.70;99.90;;;;;;5072289;28;19996;-67
2021/08/08 08:24:30;;;;;;;;;;;12.70;99.90;;;;;;5073001;28;19908;-70
2021/08/08 08:26:57;;;;;;;;;;;12.70;99.90;;;;;;5091711;28;19912;-68
2021/08/08 08:29:23;;;;;;;;;;;12.80;99.90;;;;;;5092345;28;19947;-69
2021/08/08 08:31:50;;;;;;;;;;;12.80;99.90;;;;;;5092234;28;20484;-68
2021/08/08 08:34:16;;;;;;;;;;;12.80;99.90;;;;;;5092686;28;19912;-68
2021/08/08 08:36:43;;;;;;;;;;;12.80;99.90;;;;;;5092410;28;19908;-66
2021/08/08 08:39:10;;;;;;;;;;;12.70;99.90;;;;;;5091635;28;19915;-68
2021/08/08 08:41:37;;;;;;;;;;;12.70;99.90;;;;;;5091885;28;19912;-69
2021/08/08 08:44:04;;;;;;;;;;;12.60;99.90;;;;;;5092482;28;19908;-69
2021/08/08 08:46:31;;;;;;;;;;;12.60;99.90;;;;;;5096336;28;19920;-68
2021/08/08 08:48:57;;;;;;;;;;;12.60;99.90;;;;;;5096366;28;20007;-69
2021/08/08 08:51:32;;;;;;;;;;;12.60;99.90;;;;;;5096304;28;19909;-68
2021/08/08 08:54:00;;;;;;;;;;;12.60;99.90;;;;;;5095607;28;19946;-67
2021/08/08 08:56:28;;;;;;;;;;;12.60;99.90;;;;;;5096002;28;19912;-66
2021/08/08 08:58:55;;;;;;;;;;;12.60;99.90;;;;;;5096208;28;19908;-67
2021/08/08 09:01:22;;;;;;;;;;;12.60;99.90;;;;;;5096358;28;20264;-67
2021/08/08 09:03:49;;;;;;;;;;;12.60;99.90;;;;;;5096099;28;20371;-68
2021/08/08 09:06:15;;;;;;;;;;;12.70;99.90;;;;;;5096114;28;19909;-67
2021/08/08 09:08:42;;;;;;;;;;;12.70;99.90;;;;;;5095180;28;19938;-68
2021/08/08 09:11:09;;;;;;;;;;;12.70;99.90;;;;;;5095877;28;19908;-67
2021/08/08 09:13:55;;;;;;;;;;;12.70;99.90;;;;;;5095589;28;19912;-68
2021/08/08 09:16:27;;;;;;;;;;;12.70;99.90;;;;;;5095938;28;19908;-67
2021/08/08 09:18:57;;;;;;;;;;;12.70;99.90;;;;;;5095711;28;19908;-68
2021/08/08 09:21:24;;;;;;;;;;;12.70;99.90;;;;;;5095789;28;20033;-68
2021/08/08 09:23:55;;;;;;;;;;;12.70;99.90;;;;;;5095162;28;19930;-67
2021/08/08 09:26:35;;;;;;;;;;;12.70;99.90;;;;;;5095853;28;19914;-67
2021/08/08 09:29:05;;;;;;;;;;;12.70;99.90;;;;;;5095412;28;20049;-67
2021/08/08 09:31:49;;;;;;;;;;;12.70;99.90;;;;;;5095356;28;19919;-67
2021/08/08 09:34:22;;;;;;;;;;;12.70;99.90;;;;;;5095559;28;19930;-66
2021/08/08 09:36:49;;;;;;;;;;;12.70;99.90;;;;;;5095357;28;19912;-68
2021/08/08 09:39:33;;;;;;;;;;;12.70;99.90;;;;;;5094653;28;20262;-67
2021/08/08 09:42:18;;;;;;;;;;;12.70;99.90;;;;;;5095388;28;20354;-67
2021/08/08 09:44:55;;;;;;;;;;;12.70;99.90;;;;;;5095249;28;19912;-67
2021/08/08 09:47:23;;;;;;;;;;;12.70;99.90;;;;;;5095418;28;19916;-68
2021/08/08 09:50:05;;;;;;;;;;;12.70;99.90;;;;;;5095061;28;20262;-68
2021/08/08 09:52:36;;;;;;;;;;;12.70;99.90;;;;;;5095329;28;19915;-67
2021/08/08 09:55:04;;;;;;;;;;;12.70;99.90;;;;;;5094549;28;19908;-69
2021/08/08 09:57:40;;;;;;;;;;;12.70;99.90;;;;;;5094995;28;19908;-68
2021/08/08 10:00:07;;;;;;;;;;;12.70;99.90;;;;;;5095092;28;19919;-68
2021/08/08 10:02:33;;;;;;;;;;;12.70;99.90;;;;;;5094969;28;19908;-68
2021/08/08 10:05:00;;;;;;;;;;;12.70;99.90;;;;;;5094948;28;19915;-68
2021/08/08 10:07:29;;;;;;;;;;;12.70;99.90;;;;;;5094817;28;19916;-66
2021/08/08 10:10:00;;;;;;;;;;;12.70;99.90;;;;;;5094070;28;19927;-69
2021/08/08 10:12:30;;;;;;;;;;;12.60;99.90;;;;;;5094886;28;19912;-67
2021/08/08 10:14:57;;;;;;;;;;;12.70;99.90;;;;;;5094928;28;19965;-66
2021/08/08 10:17:26;;;;;;;;;;;12.70;99.90;;;;;;5094734;28;19908;-68
2021/08/08 10:19:55;;;;;;;;;;;12.70;99.90;;;;;;5094534;28;20414;-68
2021/08/08 10:22:23;;;;;;;;;;;12.70;99.90;;;;;;5094598;28;19954;-67
2021/08/08 10:24:56;;;;;;;;;;;12.70;99.90;;;;;;5094498;28;19908;-65
2021/08/08 10:27:23;;;;;;;;;;;12.80;99.90;;;;;;5094429;28;19961;-67
2021/08/08 10:29:51;;;;;;;;;;;12.70;99.90;;;;;;5094173;28;19927;-67
2021/08/08 10:32:18;;;;;;;;;;;12.80;99.90;;;;;;5094484;28;19911;-66
2021/08/08 10:34:45;;;;;;;;;;;12.70;99.90;;;;;;5094616;28;19970;-67
2021/08/08 10:37:13;;;;;;;;;;;12.80;99.90;;;;;;5094492;28;20373;-68
2021/08/08 10:39:46;;;;;;;;;;;12.70;99.90;;;;;;5094219;28;19915;-68
2021/08/08 10:42:13;;;;;;;;;;;12.70;99.90;;;;;;5080861;28;19995;-69
2021/08/08 10:44:49;;;;;;;;;;;12.70;99.90;;;;;;5073554;28;20260;-67
2021/08/08 10:47:29;;;;;;;;;;;12.70;99.90;;;;;;5073686;28;19920;-66
2021/08/08 10:50:07;;;;;;;;;;;12.70;99.90;;;;;;5073810;28;20351;-67
2021/08/08 10:52:40;;;;;;;;;;;12.70;99.90;;;;;;5073817;28;20278;-67
2021/08/08 10:55:07;;;;;;;;;;;12.60;99.90;;;;;;5074002;28;19940;-68
2021/08/08 10:57:43;;;;;;;;;;;12.60;99.90;;;;;;5073250;28;19909;-68
2021/08/08 11:00:13;;;;;;;;;;;12.70;99.90;;;;;;5073716;28;19961;-69
2021/08/08 11:02:44;;;;;;;;;;;12.80;99.90;;;;;;5073834;28;19916;-68
2021/08/08 11:05:12;;;;;;;;;;;12.80;99.90;;;;;;5073548;28;19956;-67
2021/08/08 11:07:39;;;;;;;;;;;12.70;99.90;;;;;;5072839;28;19909;-68
2021/08/08 11:10:06;;;;;;;;;;;12.70;99.90;;;;;;5073524;28;20421;-68
2021/08/08 11:12:42;;;;;;;;;;;12.70;99.90;;;;;;5073412;28;19915;-68
2021/08/08 11:15:10;;;;;;;;;;;12.60;99.90;;;;;;5073485;28;19936;-68
2021/08/08 11:17:37;;;;;;;;;;;12.60;99.90;;;;;;5073245;28;20252;-68
2021/08/08 11:20:07;;;;;;;;;;;12.60;99.90;;;;;;5073262;28;19912;-68
2021/08/08 11:22:33;;;;;;;;;;;12.60;99.90;;;;;;5073164;28;19954;-69
2021/08/08 11:25:03;;;;;;;;;;;12.60;99.90;;;;;;5073267;28;20307;-67
2021/08/08 11:27:33;;;;;;;;;;;12.60;99.90;;;;;;5072894;28;19943;-69
2021/08/08 11:30:00;;;;;;;;;;;12.60;99.90;;;;;;5073031;28;19921;-67
2021/08/08 11:32:30;;;;;;;;;;;12.60;99.90;;;;;;5072899;28;19916;-68
2021/08/08 11:35:04;;;;;;;;;;;12.60;99.90;;;;;;5073096;28;19909;-69
2021/08/08 11:37:35;;;;;;;;;;;12.60;99.90;;;;;;5072716;28;19970;-68
2021/08/08 11:40:02;;;;;;;;;;;12.60;99.90;;;;;;5073102;28;19915;-67
2021/08/08 11:42:32;;;;;;;;;;;12.60;99.90;;;;;;5072728;28;19909;-69
2021/08/08 11:44:59;;;;;;;;;;;12.50;99.90;;;;;;5072789;28;19974;-68
2021/08/08 11:47:26;;;;;;;;;;;12.50;99.90;;;;;;5072861;28;19935;-67
2021/08/08 11:49:53;;;;;;;;;;;12.50;99.90;;;;;;5072362;28;19971;-67
2021/08/08 11:52:20;;;;;;;;;;;12.50;99.90;;;;;;5072963;28;19908;-67
2021/08/08 11:54:48;;;;;;;;;;;12.50;99.90;;;;;;5072845;28;19916;-67
2021/08/08 11:57:25;;;;;;;;;;;12.60;99.90;;;;;;5072578;28;19909;-67
2021/08/08 11:59:52;;;;;;;;;;;12.50;99.90;;;;;;5072468;28;20008;-68
2021/08/08 12:02:19;;;;;;;;;;;12.50;99.90;;;;;;5072558;28;19916;-70
2021/08/08 12:04:45;;;;;;;;;;;12.50;99.90;;;;;;5072576;28;20378;-69
2021/08/08 12:07:12;;;;;;;;;;;12.40;99.90;;;;;;5072393;28;19909;-69
2021/08/08 12:09:46;;;;;;;;;;;12.40;99.90;;;;;;5071499;28;19920;-70
2021/08/08 12:12:13;;;;;;;;;;;12.40;99.90;;;;;;5072127;28;19913;-70
2021/08/08 12:14:41;;;;;;;;;;;12.30;99.90;;;;;;5072319;28;20382;-69
2021/08/08 12:17:12;;;;;;;;;;;12.50;99.90;;;;;;5072477;28;19909;-71
2021/08/08 12:19:39;;;;;;;;;;;12.50;99.90;;;;;;5071084;28;20311;-70
2021/08/08 12:22:13;;;;;;;;;;;12.40;99.90;;;;;;5072384;28;19912;-70
2021/08/08 12:24:44;;;;;;;;;;;12.30;99.90;;;;;;5071772;28;19991;-70
2021/08/08 12:27:13;;;;;;;;;;;12.30;99.90;;;;;;5071932;28;19908;-70
2021/08/08 12:29:40;;;;;;;;;;;12.30;99.90;;;;;;5071883;28;19959;-67
2021/08/08 12:32:08;;;;;;;;;;;12.30;99.90;;;;;;5072284;28;19966;-67
2021/08/08 12:34:35;;;;;;;;;;;12.30;99.90;;;;;;5072218;28;19908;-67
2021/08/08 12:37:03;;;;;;;;;;;12.30;99.90;;;;;;5072188;28;19962;-67
2021/08/08 12:39:31;;;;;;;;;;;12.30;99.90;;;;;;5071651;28;19913;-67
2021/08/08 12:41:57;;;;;;;;;;;12.30;99.90;;;;;;5072020;28;19935;-69
2021/08/08 12:44:31;;;;;;;;;;;12.30;99.90;;;;;;5072007;28;19916;-67
2021/08/08 12:47:05;;;;;;;;;;;12.30;99.90;;;;;;5071945;28;20011;-68
2021/08/08 12:49:32;;;;;;;;;;;12.20;99.90;;;;;;5071682;28;19962;-69
2021/08/08 12:51:59;;;;;;;;;;;12.20;99.90;;;;;;5072176;28;19908;-68
2021/08/08 12:54:26;;;;;;;;;;;12.20;99.90;;;;;;5071493;28;19961;-70
2021/08/08 12:56:52;;;;;;;;;;;12.30;99.90;;;;;;5071972;28;19916;-67
2021/08/08 12:59:19;;;;;;;;;;;12.30;99.90;;;;;;5072003;28;19931;-70
2021/08/08 13:01:46;;;;;;;;;;;12.20;99.90;;;;;;5071753;28;19977;-70
2021/08/08 13:04:12;;;;;;;;;;;12.10;99.90;;;;;;5071612;28;19919;-71
2021/08/08 13:06:39;;;;;;;;;;;12.10;99.90;;;;;;5071704;28;19915;-69
2021/08/08 13:09:06;;;;;;;;;;;12.10;99.90;;;;;;5070830;28;20404;-70
2021/08/08 13:11:32;;;;;;;;;;;12.20;99.90;;;;;;5071725;28;19908;-68
2021/08/08 13:13:59;;;;;;;;;;;12.20;99.90;;;;;;5071835;28;19915;-69
2021/08/08 13:16:26;;;;;;;;;;;12.20;99.90;;;;;;5071756;28;19915;-71
2021/08/08 13:18:52;;;;;;;;;;;12.30;99.90;;;;;;5071694;28;19916;-70
2021/08/08 13:21:19;;;;;;;;;;;12.30;99.90;;;;;;5071847;28;20256;-70
2021/08/08 13:23:46;;;;;;;;;;;12.20;99.90;;;;;;5071489;28;19909;-70
2021/08/08 13:26:12;;;;;;;;;;;12.20;99.90;;;;;;5071694;28;19922;-69
2021/08/08 13:28:39;;;;;;;;;;;12.20;99.90;;;;;;5071630;28;19924;-67
2021/08/08 13:31:06;;;;;;;;;;;12.30;99.90;;;;;;5073484;28;19913;-68
2021/08/08 13:33:33;;;;;;;;;;;12.20;99.90;;;;;;5075553;28;19999;-70
2021/08/08 13:36:00;;;;;;;;;;;12.20;99.90;;;;;;5075254;28;19916;-67
2021/08/08 13:38:27;;;;;;;;;;;12.20;99.90;;;;;;5075268;28;20278;-70
2021/08/08 13:40:53;;;;;;;;;;;12.20;99.90;;;;;;5075260;28;19920;-68
2021/08/08 13:43:20;;;;;;;;;;;12.40;99.90;;;;;;5075031;28;19916;-68
2021/08/08 13:45:47;;;;;;;;;;;12.50;99.90;;;;;;5074748;28;19924;-70
2021/08/08 13:48:13;;;;;;;;;;;12.50;99.90;;;;;;5075186;28;19931;-69
2021/08/08 13:50:41;;;;;;;;;;;12.50;99.90;;;;;;5075021;28;19970;-67
2021/08/08 13:53:08;;;;;;;;;;;12.50;99.90;;;;;;5075327;28;19927;-67
2021/08/08 13:55:34;;;;;;;;;;;12.50;99.90;;;;;;5074474;28;19912;-66
2021/08/08 13:58:01;;;;;;;;;;;12.40;99.90;;;;;;5075005;28;19917;-68
2021/08/08 14:00:27;;;;;;;;;;;12.40;99.90;;;;;;5074788;28;19991;-70
2021/08/08 14:02:54;;;;;;;;;;;12.40;99.90;;;;;;5074951;28;20359;-68
2021/08/08 14:05:21;;;;;;;;;;;12.30;99.90;;;;;;5074882;28;19952;-68
2021/08/08 14:07:47;;;;;;;;;;;12.30;99.90;;;;;;5074518;28;19916;-68
2021/08/08 14:10:14;;;;;;;;;;;12.20;99.90;;;;;;5074570;28;19917;-69
2021/08/08 14:12:42;;;;;;;;;;;12.10;99.90;;;;;;5074322;28;19962;-69
2021/08/08 14:15:09;;;;;;;;;;;12.10;99.90;;;;;;5074692;28;19912;-70
2021/08/08 14:17:36;;;;;;;;;;;12.10;99.90;;;;;;5074252;28;19908;-67
2021/08/08 14:20:06;;;;;;;;;;;12.00;99.90;;;;;;5074587;28;19962;-70